sim
Sign-in with your pilot id or email,
or register
Callsign
Passwort

Schedule Details

Flight Number: RYR2319 (2)
Departure: Bratislava M. R. Stefanik Airport (LZIB) at 20:20
Arrival: London Stansted Airport (EGSS) at 22:45
Route: Ryanair Passenger Schedule. Enter filed route here before submitting Pirep.

Weather Information
Getting current METAR information for LZIB 310700Z 36007KT 9999 -RA FEW023 BKN053 BKN070 11/07 Q1015 WS R31 TEMPO RA
Getting current METAR information for EGSS 310720Z AUTO 09008KT 040V110 9999 NCD 17/10 Q1023

Schedule Frequency

Route Map